Unadilla, New York
Current Conditions -  °F | °C
As of 4:53 PM on Sunday 25 Jan 2015 (Local Time) from KBGM Reporting Station
Clear Clear  
Wind Chill:   Ceiling: Unl
Heat Index: 16°   Visibility: 10mi
Dew Point:   Wind: 13mph
Humidity: 68%   Direction: 350°N
Pressure: 29.84"   Gusts: NA
Location:  42.33°N, 75.31°W
Report Text: KBGM 252153Z 35011KT 10SM CLR M09/M14 A2984 RMK AO2 SLP128 T10891139
Loading
Personal Weather Stations






























Interactive Weather Map New forecast layout! Learn more

10-Day Weather Forecast

Advertisements
Track Severe Weather on mobile